KLM2650 LFLL-LFMN
Flight info
| Callsign | KLM2650 |
|---|---|
| Flight time | 0h 39m |
| Altitude | 27000 |
| Route | ROMAM T43 BEPER DCT XIRBI |
| Aircraft | A321/M-SDE3FGHIRWY/LB1 |
Departure
| Time | 2026-05-06 07:23 |
|---|---|
| Airport | Lyon Saint-Exupéry Airport (LFLL) |
Arrival
| Time | 2026-05-06 08:02 |
|---|---|
| Airport | Nice-Côte d'Azur Airport (LFMN) |
| Time | Latitude | Longitude | Altitude | Speed | Heading |
|---|---|---|---|---|---|
| 2026-05-06 07:05 | 45.71544 | 5.07738 | 799 ft | 0 kts | 45° |
| 2026-05-06 07:15 | 45.71542 | 5.07735 | 798 ft | 3 kts | 53° |
| 2026-05-06 07:16 | 45.71537 | 5.07710 | 798 ft | 3 kts | 116° |
| 2026-05-06 07:16 | 45.71539 | 5.07703 | 798 ft | 0 kts | 128° |
| 2026-05-06 07:19 | 45.71531 | 5.07717 | 799 ft | 6 kts | 129° |
| 2026-05-06 07:19 | 45.71484 | 5.07794 | 799 ft | 13 kts | 130° |
| 2026-05-06 07:19 | 45.71444 | 5.07922 | 800 ft | 16 kts | 91° |
| 2026-05-06 07:19 | 45.71444 | 5.08098 | 800 ft | 18 kts | 104° |
| 2026-05-06 07:20 | 45.71418 | 5.08249 | 801 ft | 15 kts | 105° |
| 2026-05-06 07:20 | 45.71412 | 5.08448 | 801 ft | 21 kts | 87° |
| 2026-05-06 07:20 | 45.71379 | 5.08533 | 801 ft | 3 kts | 176° |
| 2026-05-06 07:20 | 45.71290 | 5.08542 | 803 ft | 21 kts | 175° |
| 2026-05-06 07:21 | 45.71135 | 5.08609 | 805 ft | 23 kts | 127° |
| 2026-05-06 07:21 | 45.71093 | 5.08796 | 805 ft | 17 kts | 102° |
| 2026-05-06 07:21 | 45.71083 | 5.08980 | 805 ft | 22 kts | 81° |
| 2026-05-06 07:21 | 45.71110 | 5.09027 | 804 ft | 2 kts | 4° |
| 2026-05-06 07:22 | 45.71158 | 5.09020 | 803 ft | 15 kts | 354° |
| 2026-05-06 07:22 | 45.71577 | 5.08968 | 800 ft | 105 kts | 354° |
| 2026-05-06 07:22 | 45.72557 | 5.08849 | 792 ft | 175 kts | 354° |
| 2026-05-06 07:22 | 45.73874 | 5.08671 | 1216 ft | 199 kts | 354° |
| 2026-05-06 07:23 | 45.75243 | 5.08500 | 2243 ft | 195 kts | 353° |
| 2026-05-06 07:23 | 45.76585 | 5.08343 | 2997 ft | 193 kts | 352° |
| 2026-05-06 07:23 | 45.77994 | 5.08174 | 3159 ft | 215 kts | 352° |
| 2026-05-06 07:23 | 45.79569 | 5.07981 | 3502 ft | 234 kts | 353° |
| 2026-05-06 07:24 | 45.81196 | 5.07786 | 4300 ft | 236 kts | 353° |
| 2026-05-06 07:24 | 45.82830 | 5.08049 | 5056 ft | 244 kts | 22° |
| 2026-05-06 07:24 | 45.84104 | 5.09682 | 5770 ft | 255 kts | 60° |
| 2026-05-06 07:24 | 45.84473 | 5.12169 | 6488 ft | 263 kts | 97° |
| 2026-05-06 07:25 | 45.83764 | 5.14533 | 7194 ft | 261 kts | 135° |
| 2026-05-06 07:25 | 45.82267 | 5.15922 | 7918 ft | 258 kts | 163° |
| 2026-05-06 07:25 | 45.80539 | 5.16589 | 8705 ft | 257 kts | 170° |
| 2026-05-06 07:25 | 45.78787 | 5.17127 | 9487 ft | 258 kts | 170° |
| 2026-05-06 07:26 | 45.77020 | 5.17665 | 10194 ft | 261 kts | 169° |
| 2026-05-06 07:26 | 45.75235 | 5.18208 | 10857 ft | 264 kts | 169° |
| 2026-05-06 07:26 | 45.73466 | 5.18971 | 11534 ft | 267 kts | 162° |
| 2026-05-06 07:26 | 45.71696 | 5.19808 | 12240 ft | 268 kts | 169° |
| 2026-05-06 07:27 | 45.69808 | 5.20123 | 12598 ft | 283 kts | 181° |
| 2026-05-06 07:27 | 45.67760 | 5.20077 | 12743 ft | 306 kts | 183° |
| 2026-05-06 07:27 | 45.65558 | 5.19952 | 12879 ft | 327 kts | 184° |
| 2026-05-06 07:27 | 45.63222 | 5.19785 | 13193 ft | 342 kts | 184° |
| 2026-05-06 07:28 | 45.60860 | 5.19608 | 13784 ft | 347 kts | 184° |
| 2026-05-06 07:28 | 45.58440 | 5.19430 | 14403 ft | 350 kts | 184° |
| 2026-05-06 07:28 | 45.53530 | 5.19096 | 15646 ft | 356 kts | 184° |
| 2026-05-06 07:29 | 45.51041 | 5.18939 | 16267 ft | 360 kts | 184° |
| 2026-05-06 07:29 | 45.48530 | 5.18783 | 16885 ft | 363 kts | 184° |
| 2026-05-06 07:29 | 45.45999 | 5.18622 | 17491 ft | 366 kts | 184° |
| 2026-05-06 07:29 | 45.43445 | 5.18461 | 18102 ft | 369 kts | 183° |
| 2026-05-06 07:30 | 45.40870 | 5.18298 | 18658 ft | 372 kts | 183° |
| 2026-05-06 07:30 | 45.38277 | 5.18133 | 19185 ft | 375 kts | 183° |
| 2026-05-06 07:30 | 45.35663 | 5.17965 | 19703 ft | 378 kts | 183° |
| 2026-05-06 07:30 | 45.33026 | 5.17796 | 20222 ft | 381 kts | 183° |
| 2026-05-06 07:31 | 45.30369 | 5.17625 | 20763 ft | 384 kts | 183° |
| 2026-05-06 07:31 | 45.27690 | 5.17453 | 21266 ft | 387 kts | 183° |
| 2026-05-06 07:31 | 45.24997 | 5.17283 | 21791 ft | 389 kts | 183° |
| 2026-05-06 07:31 | 45.22289 | 5.17111 | 22326 ft | 391 kts | 183° |
| 2026-05-06 07:32 | 45.19563 | 5.16940 | 22829 ft | 393 kts | 183° |
| 2026-05-06 07:32 | 45.16820 | 5.16768 | 23317 ft | 396 kts | 183° |
| 2026-05-06 07:32 | 45.14061 | 5.16593 | 23752 ft | 399 kts | 183° |
| 2026-05-06 07:32 | 45.11283 | 5.16412 | 24182 ft | 400 kts | 183° |
| 2026-05-06 07:33 | 45.08495 | 5.16530 | 24614 ft | 402 kts | 177° |
| 2026-05-06 07:33 | 45.05703 | 5.16847 | 25069 ft | 403 kts | 178° |
| 2026-05-06 07:33 | 45.02906 | 5.17163 | 25549 ft | 403 kts | 178° |
| 2026-05-06 07:33 | 45.00112 | 5.17479 | 25993 ft | 404 kts | 178° |
| 2026-05-06 07:34 | 44.97310 | 5.17794 | 26428 ft | 405 kts | 179° |
| 2026-05-06 07:34 | 44.94492 | 5.18102 | 26813 ft | 406 kts | 179° |
| 2026-05-06 07:34 | 44.91685 | 5.18410 | 26904 ft | 401 kts | 179° |
| 2026-05-06 07:34 | 44.88919 | 5.18720 | 26915 ft | 396 kts | 179° |
| 2026-05-06 07:35 | 44.86184 | 5.19030 | 26905 ft | 393 kts | 180° |
| 2026-05-06 07:35 | 44.83468 | 5.19334 | 26915 ft | 391 kts | 180° |
| 2026-05-06 07:35 | 44.80755 | 5.19635 | 26916 ft | 391 kts | 180° |
| 2026-05-06 07:35 | 44.78045 | 5.19932 | 26911 ft | 391 kts | 180° |
| 2026-05-06 07:36 | 44.75336 | 5.20230 | 26912 ft | 391 kts | 180° |
| 2026-05-06 07:36 | 44.72626 | 5.20531 | 26911 ft | 390 kts | 180° |
| 2026-05-06 07:36 | 44.69920 | 5.20829 | 26912 ft | 390 kts | 180° |
| 2026-05-06 07:36 | 44.67250 | 5.21122 | 26905 ft | 390 kts | 180° |
| 2026-05-06 07:37 | 44.64536 | 5.21416 | 26900 ft | 390 kts | 180° |
| 2026-05-06 07:37 | 44.61856 | 5.21761 | 26896 ft | 391 kts | 179° |
| 2026-05-06 07:37 | 44.59154 | 5.22227 | 26897 ft | 392 kts | 177° |
| 2026-05-06 07:37 | 44.56451 | 5.22766 | 26901 ft | 393 kts | 176° |
| 2026-05-06 07:38 | 44.53751 | 5.23334 | 26902 ft | 393 kts | 176° |
| 2026-05-06 07:38 | 44.51045 | 5.23901 | 26902 ft | 393 kts | 176° |
| 2026-05-06 07:38 | 44.48343 | 5.24451 | 26887 ft | 392 kts | 178° |
| 2026-05-06 07:38 | 44.45646 | 5.24980 | 26896 ft | 392 kts | 178° |
| 2026-05-06 07:39 | 44.42948 | 5.25494 | 26894 ft | 391 kts | 178° |
| 2026-05-06 07:39 | 44.40254 | 5.26045 | 26900 ft | 393 kts | 174° |
| 2026-05-06 07:39 | 44.37611 | 5.27156 | 26902 ft | 401 kts | 164° |
| 2026-05-06 07:39 | 44.35115 | 5.28986 | 26899 ft | 410 kts | 153° |
| 2026-05-06 07:40 | 44.32842 | 5.31389 | 26900 ft | 414 kts | 149° |
| 2026-05-06 07:40 | 44.30581 | 5.33876 | 26868 ft | 414 kts | 149° |
| 2026-05-06 07:40 | 44.28314 | 5.36353 | 26877 ft | 414 kts | 150° |
| 2026-05-06 07:40 | 44.26033 | 5.38832 | 26912 ft | 417 kts | 150° |
| 2026-05-06 07:41 | 44.23742 | 5.41319 | 26919 ft | 417 kts | 150° |
| 2026-05-06 07:41 | 44.21455 | 5.43800 | 26919 ft | 416 kts | 150° |
| 2026-05-06 07:41 | 44.19166 | 5.46280 | 26923 ft | 416 kts | 150° |
| 2026-05-06 07:41 | 44.16885 | 5.48754 | 26915 ft | 416 kts | 150° |
| 2026-05-06 07:42 | 44.14607 | 5.51226 | 26909 ft | 415 kts | 150° |
| 2026-05-06 07:42 | 44.12327 | 5.53697 | 26908 ft | 415 kts | 150° |
| 2026-05-06 07:42 | 44.10061 | 5.56155 | 26656 ft | 410 kts | 150° |
| 2026-05-06 07:42 | 44.07822 | 5.58588 | 26117 ft | 406 kts | 151° |
| 2026-05-06 07:43 | 44.05608 | 5.60990 | 25666 ft | 401 kts | 151° |
| 2026-05-06 07:43 | 44.03419 | 5.63360 | 25207 ft | 397 kts | 152° |
| 2026-05-06 07:43 | 44.01250 | 5.65697 | 24747 ft | 392 kts | 152° |
| 2026-05-06 07:43 | 43.99104 | 5.68002 | 24306 ft | 388 kts | 152° |
| 2026-05-06 07:44 | 43.97008 | 5.70252 | 23869 ft | 385 kts | 152° |
| 2026-05-06 07:44 | 43.94904 | 5.72508 | 23393 ft | 380 kts | 153° |
| 2026-05-06 07:44 | 43.92825 | 5.74737 | 22938 ft | 375 kts | 153° |
| 2026-05-06 07:44 | 43.90778 | 5.76928 | 22520 ft | 369 kts | 152° |
| 2026-05-06 07:45 | 43.88758 | 5.79085 | 22086 ft | 364 kts | 152° |
| 2026-05-06 07:45 | 43.86763 | 5.81218 | 21667 ft | 360 kts | 152° |
| 2026-05-06 07:45 | 43.84797 | 5.83323 | 21269 ft | 355 kts | 151° |
| 2026-05-06 07:45 | 43.82849 | 5.85408 | 20862 ft | 352 kts | 150° |
| 2026-05-06 07:46 | 43.80921 | 5.87471 | 20445 ft | 349 kts | 150° |
| 2026-05-06 07:46 | 43.79006 | 5.89515 | 20033 ft | 346 kts | 150° |
| 2026-05-06 07:46 | 43.77108 | 5.91535 | 19622 ft | 343 kts | 149° |
| 2026-05-06 07:46 | 43.75220 | 5.93539 | 19225 ft | 341 kts | 149° |
| 2026-05-06 07:47 | 43.73342 | 5.95532 | 18818 ft | 339 kts | 148° |
| 2026-05-06 07:47 | 43.71475 | 5.97513 | 18429 ft | 337 kts | 148° |
| 2026-05-06 07:47 | 43.69623 | 5.99478 | 17990 ft | 335 kts | 147° |
| 2026-05-06 07:47 | 43.67779 | 6.01435 | 17586 ft | 332 kts | 147° |
| 2026-05-06 07:48 | 43.65955 | 6.03371 | 17202 ft | 329 kts | 148° |
| 2026-05-06 07:48 | 43.64148 | 6.05286 | 16819 ft | 327 kts | 148° |
| 2026-05-06 07:48 | 43.62348 | 6.07191 | 16448 ft | 325 kts | 147° |
| 2026-05-06 07:48 | 43.60680 | 6.09319 | 16063 ft | 328 kts | 136° |
| 2026-05-06 07:49 | 43.59313 | 6.11861 | 15682 ft | 336 kts | 125° |
| 2026-05-06 07:49 | 43.58261 | 6.14850 | 15241 ft | 353 kts | 114° |
| 2026-05-06 07:49 | 43.57398 | 6.18030 | 14782 ft | 354 kts | 114° |
| 2026-05-06 07:49 | 43.56536 | 6.21203 | 14326 ft | 353 kts | 114° |
| 2026-05-06 07:50 | 43.55674 | 6.24367 | 13887 ft | 351 kts | 114° |
| 2026-05-06 07:50 | 43.54811 | 6.27511 | 13408 ft | 350 kts | 114° |
| 2026-05-06 07:50 | 43.53946 | 6.30645 | 12943 ft | 348 kts | 114° |
| 2026-05-06 07:50 | 43.53084 | 6.33748 | 12512 ft | 346 kts | 114° |
| 2026-05-06 07:51 | 43.52223 | 6.36833 | 12144 ft | 341 kts | 114° |
| 2026-05-06 07:51 | 43.51401 | 6.39793 | 11892 ft | 321 kts | 114° |
| 2026-05-06 07:51 | 43.50536 | 6.42554 | 11389 ft | 306 kts | 123° |
| 2026-05-06 07:51 | 43.49330 | 6.44939 | 11157 ft | 304 kts | 135° |
| 2026-05-06 07:52 | 43.47892 | 6.47041 | 10899 ft | 300 kts | 138° |
| 2026-05-06 07:52 | 43.46455 | 6.49111 | 10651 ft | 298 kts | 138° |
| 2026-05-06 07:52 | 43.45025 | 6.51170 | 10415 ft | 297 kts | 138° |
| 2026-05-06 07:52 | 43.43602 | 6.53219 | 10094 ft | 296 kts | 138° |
| 2026-05-06 07:53 | 43.42184 | 6.55262 | 9719 ft | 294 kts | 138° |
| 2026-05-06 07:53 | 43.40773 | 6.57296 | 9297 ft | 293 kts | 138° |
| 2026-05-06 07:53 | 43.39515 | 6.59508 | 8909 ft | 297 kts | 124° |
| 2026-05-06 07:53 | 43.38709 | 6.62129 | 8539 ft | 300 kts | 107° |
| 2026-05-06 07:54 | 43.38444 | 6.64940 | 8161 ft | 302 kts | 91° |
| 2026-05-06 07:54 | 43.38458 | 6.67865 | 7769 ft | 302 kts | 91° |
| 2026-05-06 07:54 | 43.38463 | 6.70747 | 7384 ft | 301 kts | 91° |
| 2026-05-06 07:54 | 43.38461 | 6.73583 | 7004 ft | 300 kts | 90° |
| 2026-05-06 07:55 | 43.38455 | 6.76442 | 6620 ft | 299 kts | 90° |
| 2026-05-06 07:55 | 43.38449 | 6.79296 | 6235 ft | 298 kts | 90° |
| 2026-05-06 07:55 | 43.38655 | 6.82109 | 5835 ft | 295 kts | 74° |
| 2026-05-06 07:55 | 43.39416 | 6.84688 | 5544 ft | 286 kts | 57° |
| 2026-05-06 07:56 | 43.40596 | 6.86781 | 5465 ft | 270 kts | 43° |
| 2026-05-06 07:56 | 43.41881 | 6.88576 | 5360 ft | 258 kts | 41° |
| 2026-05-06 07:56 | 43.43131 | 6.90276 | 5274 ft | 247 kts | 41° |
| 2026-05-06 07:56 | 43.44324 | 6.91895 | 5215 ft | 237 kts | 41° |
| 2026-05-06 07:57 | 43.45508 | 6.93501 | 5141 ft | 240 kts | 42° |
| 2026-05-06 07:57 | 43.46698 | 6.95121 | 4881 ft | 240 kts | 42° |
| 2026-05-06 07:57 | 43.47864 | 6.96710 | 4622 ft | 233 kts | 42° |
| 2026-05-06 07:57 | 43.49005 | 6.98266 | 4349 ft | 228 kts | 42° |
| 2026-05-06 07:58 | 43.50119 | 6.99785 | 4134 ft | 221 kts | 42° |
| 2026-05-06 07:58 | 43.51192 | 7.01249 | 3899 ft | 213 kts | 42° |
| 2026-05-06 07:58 | 43.52226 | 7.02661 | 3619 ft | 206 kts | 42° |
| 2026-05-06 07:58 | 43.53239 | 7.04043 | 3354 ft | 203 kts | 42° |
| 2026-05-06 07:59 | 43.54242 | 7.05413 | 3081 ft | 203 kts | 43° |
| 2026-05-06 07:59 | 43.55231 | 7.06765 | 2808 ft | 199 kts | 43° |
| 2026-05-06 07:59 | 43.56209 | 7.08102 | 2540 ft | 197 kts | 43° |
| 2026-05-06 07:59 | 43.57178 | 7.09427 | 2283 ft | 196 kts | 43° |
| 2026-05-06 08:00 | 43.58142 | 7.10747 | 2013 ft | 195 kts | 42° |
| 2026-05-06 08:00 | 43.59100 | 7.12059 | 1752 ft | 195 kts | 43° |
| 2026-05-06 08:00 | 43.60058 | 7.13372 | 1485 ft | 194 kts | 43° |
| 2026-05-06 08:00 | 43.61012 | 7.14680 | 1219 ft | 193 kts | 44° |
| 2026-05-06 08:01 | 43.61922 | 7.15929 | 966 ft | 172 kts | 44° |
| 2026-05-06 08:01 | 43.62726 | 7.17034 | 746 ft | 156 kts | 41° |
| 2026-05-06 08:01 | 43.63478 | 7.18066 | 542 ft | 149 kts | 42° |
| 2026-05-06 08:01 | 43.64205 | 7.19063 | 358 ft | 145 kts | 43° |
| 2026-05-06 08:02 | 43.64915 | 7.20036 | 152 ft | 143 kts | 41° |
| 2026-05-06 08:02 | 43.65617 | 7.20992 | 42 ft | 141 kts | 41° |
| 2026-05-06 08:02 | 43.66203 | 7.21781 | 22 ft | 76 kts | 45° |
| 2026-05-06 08:02 | 43.66311 | 7.21934 | 24 ft | 5 kts | 46° |
| 2026-05-06 08:03 | 43.66392 | 7.21997 | 23 ft | 22 kts | 23° |
| 2026-05-06 08:03 | 43.66509 | 7.22049 | 22 ft | 15 kts | 11° |
| 2026-05-06 08:03 | 43.66584 | 7.21990 | 22 ft | 16 kts | 313° |
| 2026-05-06 08:03 | 43.66640 | 7.21876 | 22 ft | 12 kts | 265° |
| 2026-05-06 08:04 | 43.66589 | 7.21785 | 22 ft | 14 kts | 226° |
| 2026-05-06 08:04 | 43.66522 | 7.21690 | 22 ft | 14 kts | 225° |
| 2026-05-06 08:04 | 43.66450 | 7.21589 | 22 ft | 17 kts | 225° |
| 2026-05-06 08:04 | 43.66393 | 7.21510 | 22 ft | 17 kts | 225° |
| 2026-05-06 08:05 | 43.66350 | 7.21384 | 22 ft | 12 kts | 288° |
| 2026-05-06 08:05 | 43.66390 | 7.21361 | 25 ft | 7 kts | 347° |
| 2026-05-06 08:05 | 43.66419 | 7.21354 | 22 ft | 0 kts | 349° |